Time;durP1;ratioP1;P1;durP2;ratioP2;P2;SDS_P1;SDS_P2;PMS_P1;PMS_P2;Temp;Humidity;BMP_temperature;BMP_pressure;BME280_temperature;BME280_humidity;BME280_pressure;Samples;Min_cycle;Max_cycle;Signal;HPM_P1;HPM_P2
2021/08/28 00:00:00;;;;;;;19.57;15.73;;;;;;;14.22;94.02;100231.28;1714576;81;21442;-71
2021/08/28 00:02:27;;;;;;;18.37;15.67;;;;;;;14.22;94.02;100231.28;1714827;81;21483;-71
2021/08/28 00:04:53;;;;;;;18.43;14.57;;;;;;;14.25;94.19;100234.19;1725817;81;21459;-71
2021/08/28 00:07:20;;;;;;;16.97;14.87;;;;;;;14.26;93.92;100231.75;1728710;81;22062;-71
2021/08/28 00:09:47;;;;;;;16.53;14.73;;;;;;;14.26;93.92;100231.75;1724974;81;21498;-71
2021/08/28 00:12:15;;;;;;;17.83;14.10;;;;;;;14.25;94.18;100225.34;1711128;81;21932;-71
2021/08/28 00:14:43;;;;;;;21.73;15.00;;;;;;;14.25;94.13;100231.50;1716347;81;21753;-71
2021/08/28 00:17:10;;;;;;;18.60;14.00;;;;;;;14.25;94.13;100231.50;1727697;83;21378;-71
2021/08/28 00:19:37;;;;;;;17.63;13.67;;;;;;;14.26;94.54;100230.41;1718448;81;21585;-72
2021/08/28 00:22:04;;;;;;;15.27;12.63;;;;;;;14.28;94.66;100233.62;1729042;81;21397;-71
2021/08/28 00:24:30;;;;;;;18.33;13.07;;;;;;;14.30;94.72;100239.48;1718666;81;21573;-71
2021/08/28 00:26:57;;;;;;;16.40;13.33;;;;;;;14.34;94.68;100239.70;1723954;81;21602;-71
2021/08/28 00:29:23;;;;;;;15.97;12.87;;;;;;;14.36;94.90;100229.47;1721573;81;23406;-72
2021/08/28 00:31:50;;;;;;;14.87;12.53;;;;;;;14.36;94.90;100229.47;1722195;81;22089;-72
2021/08/28 00:34:17;;;;;;;14.23;11.73;;;;;;;14.38;95.41;100235.36;1722384;81;21604;-71
2021/08/28 00:36:45;;;;;;;14.73;11.93;;;;;;;14.41;95.09;100233.96;1731770;81;21728;-73
2021/08/28 00:39:12;;;;;;;16.40;11.70;;;;;;;14.44;95.11;100226.67;1724272;81;22305;-72
2021/08/28 00:41:38;;;;;;;14.03;11.23;;;;;;;14.43;94.90;100221.05;1707176;81;21798;-71
2021/08/28 00:44:05;;;;;;;12.83;11.33;;;;;;;14.43;94.90;100221.05;1709435;81;22350;-71
2021/08/28 00:46:33;;;;;;;15.13;12.07;;;;;;;14.43;95.59;100221.84;1701734;81;21776;-73
2021/08/28 00:49:00;;;;;;;15.20;12.13;;;;;;;14.43;95.59;100221.84;1723058;80;21600;-73
2021/08/28 00:51:28;;;;;;;12.73;11.43;;;;;;;14.46;95.46;100219.13;1713708;81;21560;-71
2021/08/28 00:53:54;;;;;;;13.20;10.93;;;;;;;14.46;95.46;100219.13;1703567;81;21665;-71
2021/08/28 00:56:21;;;;;;;11.60;10.10;;;;;;;14.49;95.43;100222.58;1725415;81;21430;-71
2021/08/28 00:58:48;;;;;;;11.00;9.83;;;;;;;14.45;95.70;100216.98;1727766;81;21570;-72
2021/08/28 01:01:18;;;;;;;11.13;9.83;;;;;;;14.39;95.35;100211.98;1715630;81;21622;-72
2021/08/28 01:03:47;;;;;;;11.43;9.70;;;;;;;14.39;95.35;100211.98;1727655;83;21750;-72
2021/08/28 01:06:25;;;;;;;14.27;11.37;;;;;;;14.28;96.00;100206.75;1732629;80;21639;-73
2021/08/28 01:09:16;;;;;;;11.80;10.60;;;;;;;14.29;96.57;100216.40;1720427;81;21504;-73
2021/08/28 01:12:14;;;;;;;15.60;12.10;;;;;;;14.29;96.57;100216.40;1684960;83;21596;-72
2021/08/28 01:14:47;;;;;;;12.73;11.43;;;;;;;14.31;96.55;100212.06;1724500;81;21082;-71
2021/08/28 01:17:16;;;;;;;13.03;11.53;;;;;;;14.34;96.66;100208.80;1724270;81;21583;-72
2021/08/28 01:20:03;;;;;;;12.50;11.17;;;;;;;14.37;96.91;100207.42;1733669;81;21652;-72
2021/08/28 01:22:50;;;;;;;12.47;10.10;;;;;;;14.41;96.83;100201.72;1732701;81;21928;-73
2021/08/28 01:25:28;;;;;;;11.37;10.27;;;;;;;14.41;96.83;100201.72;1727037;81;21479;-70
2021/08/28 01:28:03;;;;;;;10.57;9.50;;;;;;;14.37;96.79;100200.16;1733403;81;21567;-76
2021/08/28 01:30:32;;;;;;;12.70;10.70;;;;;;;14.35;97.00;100197.53;1736446;81;21351;-72
2021/08/28 01:33:02;;;;;;;12.00;10.77;;;;;;;14.39;97.34;100203.37;1714793;81;21601;-72
2021/08/28 01:35:28;;;;;;;12.47;10.13;;;;;;;14.39;97.34;100203.37;1734772;81;21589;-73
2021/08/28 01:37:57;;;;;;;11.90;10.70;;;;;;;14.41;97.29;100200.38;1729904;81;22088;-72
2021/08/28 01:40:34;;;;;;;12.10;10.73;;;;;;;14.44;97.06;100213.23;1703947;81;22092;-72
2021/08/28 01:43:02;;;;;;;12.37;10.97;;;;;;;14.46;97.62;100221.27;1709931;82;22045;-72
2021/08/28 01:45:29;;;;;;;11.63;10.27;;;;;;;14.46;97.62;100221.27;1739120;81;21501;-72
2021/08/28 01:47:58;;;;;;;11.00;9.83;;;;;;;14.50;97.25;100214.77;1740388;81;21517;-71
2021/08/28 01:50:25;;;;;;;11.63;10.43;;;;;;;14.54;97.61;100209.08;1730353;81;21560;-72
2021/08/28 01:52:54;;;;;;;11.33;10.03;;;;;;;14.63;97.50;100207.89;1734871;81;22291;-72
2021/08/28 01:55:24;;;;;;;11.43;10.23;;;;;;;14.70;97.56;100211.79;1717453;81;21816;-72
2021/08/28 01:57:59;;;;;;;12.60;10.03;;;;;;;14.74;97.51;100214.69;1710179;81;21623;-72
2021/08/28 02:00:30;;;;;;;14.38;9.80;;;;;;;14.82;97.66;100223.45;1687613;81;22233;-72
2021/08/28 02:02:57;;;;;;;10.50;9.40;;;;;;;14.89;97.68;100221.73;1720045;81;21000;-72
2021/08/28 02:05:24;;;;;;;10.63;9.43;;;;;;;14.94;97.64;100215.73;1721140;81;21708;-72
2021/08/28 02:08:05;;;;;;;10.27;8.37;;;;;;;14.93;97.68;100216.80;1700887;81;21822;-72
2021/08/28 02:10:47;;;;;;;11.23;9.37;;;;;;;14.95;97.73;100216.53;1710200;81;21830;-72
2021/08/28 02:13:34;;;;;;;10.55;8.80;;;;;;;14.92;97.81;100196.95;1713563;81;21788;-72
2021/08/28 02:16:10;;;;;;;11.00;9.57;;;;;;;14.88;97.94;100194.59;1716705;80;21083;-72
2021/08/28 02:18:50;;;;;;;11.40;8.80;;;;;;;14.81;98.00;100191.46;1724809;81;21756;-73
2021/08/28 02:21:19;;;;;;;11.67;9.27;;;;;;;14.78;98.11;100190.19;1715660;81;22257;-73
2021/08/28 02:24:09;;;;;;;10.27;9.17;;;;;;;14.74;98.26;100184.59;1718445;81;22769;-73
2021/08/28 02:26:41;;;;;;;11.30;9.20;;;;;;;14.72;98.30;100182.73;1725896;81;21776;-72
2021/08/28 02:29:13;;;;;;;12.47;10.27;;;;;;;14.69;98.31;100183.32;1671087;83;22263;-71
2021/08/28 02:31:46;;;;;;;13.05;10.75;;;;;;;14.65;98.36;100178.28;1694835;81;21749;-72
2021/08/28 02:34:14;;;;;;;13.77;11.97;;;;;;;14.61;98.37;100183.17;1714243;82;21315;-72
2021/08/28 02:36:42;;;;;;;11.07;9.50;;;;;;;14.58;98.54;100177.86;1720382;81;21842;-72
2021/08/28 02:39:10;;;;;;;11.43;9.70;;;;;;;14.59;98.56;100172.73;1730155;81;21768;-71
2021/08/28 02:41:37;;;;;;;11.07;9.27;;;;;;;14.59;98.67;100163.33;1720503;81;21798;-71
2021/08/28 02:44:05;;;;;;;11.47;10.27;;;;;;;14.56;98.77;100155.84;1726603;81;21742;-71
2021/08/28 02:46:33;;;;;;;11.53;10.03;;;;;;;14.56;99.02;100156.39;1713149;81;22323;-72
2021/08/28 02:49:02;;;;;;;12.20;10.27;;;;;;;14.57;99.17;100168.19;1726352;81;21834;-71
2021/08/28 02:51:29;;;;;;;11.43;10.23;;;;;;;14.65;99.24;100180.18;1714198;81;21734;-70
2021/08/28 02:54:00;;;;;;;11.83;8.97;;;;;;;14.72;99.24;100187.32;1740239;81;21721;-71
2021/08/28 02:56:26;;;;;;;10.47;9.30;;;;;;;14.79;99.16;100183.70;1737384;81;21781;-71
2021/08/28 02:58:53;;;;;;;10.03;8.87;;;;;;;14.86;99.04;100171.23;1736673;81;21709;-71
2021/08/28 03:01:20;;;;;;;10.50;9.43;;;;;;;14.87;98.87;100165.57;1728835;81;22263;-71
2021/08/28 03:03:47;;;;;;;11.37;8.93;;;;;;;14.88;98.86;100175.77;1732061;81;21705;-71
2021/08/28 03:06:15;;;;;;;9.77;8.70;;;;;;;14.89;98.87;100172.77;1728682;81;21756;-72
2021/08/28 03:08:45;;;;;;;9.97;7.77;;;;;;;14.90;98.84;100168.98;1719825;81;21796;-73
2021/08/28 03:11:13;;;;;;;9.97;8.83;;;;;;;14.90;98.85;100168.19;1718895;81;21763;-72
2021/08/28 03:13:41;;;;;;;9.07;7.73;;;;;;;14.91;98.87;100174.64;1733052;81;21768;-72
2021/08/28 03:16:13;;;;;;;9.50;8.23;;;;;;;14.96;98.88;100178.56;1722503;81;21695;-72
2021/08/28 03:18:42;;;;;;;9.60;8.50;;;;;;;14.99;98.82;100174.50;1728227;81;21689;-72
2021/08/28 03:21:10;;;;;;;9.57;8.10;;;;;;;15.04;98.74;100174.42;1736997;81;21073;-72
2021/08/28 03:23:39;;;;;;;8.87;7.87;;;;;;;15.08;98.69;100170.04;1711029;82;21715;-72
2021/08/28 03:26:06;;;;;;;9.90;8.77;;;;;;;15.11;98.66;100165.41;1747106;81;21695;-72
2021/08/28 03:28:33;;;;;;;8.17;7.37;;;;;;;15.14;98.68;100170.20;1715940;81;21694;-72
2021/08/28 03:31:01;;;;;;;10.30;8.43;;;;;;;15.17;98.60;100164.23;1726912;81;21051;-72
2021/08/28 03:33:27;;;;;;;9.80;8.43;;;;;;;15.20;98.50;100157.44;1736654;81;21858;-72
2021/08/28 03:35:56;;;;;;;9.20;8.03;;;;;;;15.20;98.36;100159.61;1724039;81;21711;-72
2021/08/28 03:38:22;;;;;;;9.07;7.80;;;;;;;15.20;98.27;100167.67;1695891;82;21727;-72
2021/08/28 03:40:52;;;;;;;11.30;9.17;;;;;;;15.20;98.16;100156.91;1737812;81;21723;-72
2021/08/28 03:43:19;;;;;;;10.20;9.10;;;;;;;15.23;98.13;100160.36;1735420;81;21694;-72
2021/08/28 03:45:50;;;;;;;9.00;8.00;;;;;;;15.28;98.17;100161.35;1736276;81;21703;-72
2021/08/28 03:48:20;;;;;;;9.67;8.67;;;;;;;15.33;98.12;100164.72;1739838;81;21754;-71
2021/08/28 03:50:48;;;;;;;11.17;9.20;;;;;;;15.37;98.05;100167.09;1717936;81;21053;-71
2021/08/28 03:53:15;;;;;;;11.17;8.63;;;;;;;15.40;97.91;100171.88;1715799;81;21842;-72
2021/08/28 03:55:42;;;;;;;10.10;8.87;;;;;;;15.42;97.84;100172.91;1736309;81;21100;-72
2021/08/28 03:58:09;;;;;;;10.57;8.60;;;;;;;15.48;97.73;100180.59;1721456;81;21033;-72
2021/08/28 04:00:36;;;;;;;11.00;9.80;;;;;;;15.56;97.58;100188.51;1729732;81;21686;-72
2021/08/28 04:03:04;;;;;;;9.80;8.80;;;;;;;15.64;97.39;100187.83;1730095;81;21061;-72
2021/08/28 04:05:31;;;;;;;9.83;8.83;;;;;;;15.69;97.12;100186.94;1738480;81;21168;-72
2021/08/28 04:07:58;;;;;;;11.40;9.00;;;;;;;15.72;96.84;100190.39;1718039;81;21086;-72
2021/08/28 04:10:25;;;;;;;9.57;8.60;;;;;;;15.77;96.40;100185.46;1727400;81;20995;-72
2021/08/28 04:12:52;;;;;;;8.97;7.80;;;;;;;15.82;96.47;100182.09;1735197;81;21491;-72
2021/08/28 04:15:19;;;;;;;10.63;8.30;;;;;;;15.85;96.26;100180.15;1717762;82;21010;-71
2021/08/28 04:17:57;;;;;;;10.07;8.60;;;;;;;15.88;96.09;100178.76;1735867;81;21380;-71
2021/08/28 04:20:24;;;;;;;10.00;9.00;;;;;;;15.92;95.84;100192.66;1728517;81;21042;-72
2021/08/28 04:22:51;;;;;;;8.93;8.03;;;;;;;15.97;95.60;100189.08;1735482;81;21117;-72
2021/08/28 04:25:38;;;;;;;9.00;8.07;;;;;;;16.02;95.34;100191.64;1729569;81;21029;-73
2021/08/28 04:28:07;;;;;;;8.97;7.67;;;;;;;16.06;95.04;100183.78;1727550;81;21019;-72
2021/08/28 04:30:34;;;;;;;8.47;7.40;;;;;;;16.10;94.82;100176.13;1719762;81;21629;-72
2021/08/28 04:33:01;;;;;;;10.33;8.27;;;;;;;16.10;94.54;100170.74;1710602;81;21018;-72
2021/08/28 04:35:30;;;;;;;8.80;7.90;;;;;;;16.09;94.43;100169.16;1729322;81;21211;-72
2021/08/28 04:37:57;;;;;;;8.67;7.77;;;;;;;16.10;94.42;100176.13;1675221;82;21030;-72
2021/08/28 04:40:25;;;;;;;8.20;7.40;;;;;;;16.14;94.23;100177.66;1712000;83;21058;-72
2021/08/28 04:42:54;;;;;;;8.70;7.80;;;;;;;16.15;94.03;100181.39;1734534;81;21476;-72
2021/08/28 04:45:23;;;;;;;9.00;8.05;;;;;;;16.20;93.78;100183.75;1683578;83;21122;-72
2021/08/28 04:47:53;;;;;;;9.77;7.67;;;;;;;16.26;93.58;100176.59;1709371;81;21126;-72
2021/08/28 04:50:20;;;;;;;8.47;7.57;;;;;;;16.29;93.24;100180.03;1742424;81;21549;-72
2021/08/28 04:52:47;;;;;;;7.80;7.00;;;;;;;16.34;92.97;100174.51;1738316;81;21034;-72
2021/08/28 04:55:14;;;;;;;9.93;7.80;;;;;;;16.37;92.74;100179.84;1736574;81;22112;-72
2021/08/28 04:57:41;;;;;;;8.87;7.43;;;;;;;16.38;92.59;100184.92;1740504;81;21184;-72
2021/08/28 05:00:10;;;;;;;10.10;7.50;;;;;;;16.40;92.30;100182.73;1738233;81;21039;-72
2021/08/28 05:02:47;;;;;;;8.40;6.83;;;;;;;16.45;92.03;100189.09;1730027;81;21006;-72
2021/08/28 05:05:14;;;;;;;8.93;6.83;;;;;;;16.49;91.83;100184.16;1727662;80;21541;-72
2021/08/28 05:07:41;;;;;;;8.50;7.13;;;;;;;16.51;91.55;100195.41;1727271;81;21573;-72
2021/08/28 05:10:10;;;;;;;8.57;6.30;;;;;;;16.54;91.22;100201.55;1725080;83;21094;-73
2021/08/28 05:12:37;;;;;;;8.50;6.90;;;;;;;16.58;90.96;100207.13;1694022;81;21110;-73
2021/08/28 05:15:07;;;;;;;8.30;6.20;;;;;;;16.63;90.72;100205.11;1718239;81;21043;-72
2021/08/28 05:17:35;;;;;;;10.53;6.90;;;;;;;16.68;90.42;100203.39;1722404;81;21062;-72
2021/08/28 05:20:04;;;;;;;7.33;6.27;;;;;;;16.70;90.41;100207.94;1710528;81;21129;-72
2021/08/28 05:22:35;;;;;;;9.20;6.67;;;;;;;16.73;90.28;100210.81;1721355;81;21174;-72
2021/08/28 05:25:10;;;;;;;7.20;6.13;;;;;;;16.80;90.18;100209.06;1713472;81;21949;-72
2021/08/28 05:27:38;;;;;;;7.63;6.03;;;;;;;16.83;90.10;100216.55;1717861;81;21088;-72
2021/08/28 05:30:06;;;;;;;7.33;5.73;;;;;;;16.82;89.81;100219.80;1738663;80;21117;-73
2021/08/28 05:32:33;;;;;;;9.17;6.47;;;;;;;16.81;89.48;100224.96;1716424;81;21921;-73
2021/08/28 05:35:00;;;;;;;6.77;6.07;;;;;;;16.80;89.31;100226.60;1726409;81;21102;-73
2021/08/28 05:37:34;;;;;;;8.63;6.07;;;;;;;16.80;89.51;100224.70;1715329;81;21130;-73
2021/08/28 05:40:11;;;;;;;8.50;6.27;;;;;;;16.82;89.70;100220.36;1745769;80;21021;-73
2021/08/28 05:42:38;;;;;;;8.00;6.40;;;;;;;16.84;89.95;100216.23;1726482;81;21715;-73
2021/08/28 05:45:05;;;;;;;7.27;6.50;;;;;;;16.88;90.10;100205.65;1716803;81;21526;-73
2021/08/28 05:47:33;;;;;;;7.40;5.90;;;;;;;16.90;90.33;100213.42;1705309;81;21134;-73
2021/08/28 05:50:00;;;;;;;8.60;5.80;;;;;;;16.94;90.42;100217.88;1707478;83;21086;-74
2021/08/28 05:52:27;;;;;;;7.03;5.57;;;;;;;17.00;90.39;100215.86;1706103;81;21054;-69
2021/08/28 05:54:54;;;;;;;6.73;5.70;;;;;;;17.04;90.31;100219.53;1720371;81;21566;-70
2021/08/28 05:57:21;;;;;;;7.07;5.60;;;;;;;17.09;90.05;100221.56;1714026;81;21046;-72
2021/08/28 05:59:48;;;;;;;6.97;5.27;;;;;;;17.13;89.50;100206.89;1723754;81;21468;-72
2021/08/28 06:02:15;;;;;;;6.83;4.87;;;;;;;17.18;88.97;100205.98;1715443;81;21046;-71
2021/08/28 06:04:42;;;;;;;6.70;4.43;;;;;;;17.25;88.36;100203.08;1719723;81;21042;-73
2021/08/28 06:07:12;;;;;;;5.90;4.90;;;;;;;17.30;87.63;100208.33;1721057;81;21545;-72
2021/08/28 06:09:51;;;;;;;5.77;4.90;;;;;;;17.32;86.58;100199.38;1721032;81;21543;-72
2021/08/28 06:12:36;;;;;;;6.13;4.70;;;;;;;17.37;85.46;100205.18;1713596;81;21141;-72
2021/08/28 06:15:09;;;;;;;6.37;4.80;;;;;;;17.43;84.49;100205.84;1698918;81;21138;-72
2021/08/28 06:17:43;;;;;;;6.00;4.83;;;;;;;17.50;83.79;100208.33;1719989;81;21066;-72
2021/08/28 06:20:11;;;;;;;5.57;4.10;;;;;;;17.59;82.79;100210.52;1713236;81;21711;-71
2021/08/28 06:22:39;;;;;;;5.70;4.40;;;;;;;17.68;82.24;100204.37;1724316;83;22095;-72
2021/08/28 06:25:06;;;;;;;5.97;4.70;;;;;;;17.76;81.65;100211.69;1722801;81;21616;-72
2021/08/28 06:27:33;;;;;;;5.87;4.80;;;;;;;17.85;80.89;100211.75;1722960;82;21071;-73
2021/08/28 06:30:02;;;;;;;5.57;4.50;;;;;;;17.96;80.65;100211.69;1697931;83;21522;-72
2021/08/28 06:32:30;;;;;;;6.57;5.20;;;;;;;18.06;80.11;100216.80;1710138;81;21146;-73
2021/08/28 06:34:56;;;;;;;9.30;4.73;;;;;;;18.17;79.99;100213.26;1723317;81;22107;-72
2021/08/28 06:37:25;;;;;;;6.77;4.53;;;;;;;18.30;79.50;100219.08;1721562;81;21046;-72
2021/08/28 06:40:11;;;;;;;5.90;4.20;;;;;;;18.40;78.42;100228.23;1723764;81;21046;-71
2021/08/28 06:42:42;;;;;;;7.07;4.93;;;;;;;18.46;77.15;100231.02;1716858;81;21511;-71
2021/08/28 06:45:28;;;;;;;6.63;5.37;;;;;;;18.49;76.64;100238.50;1719510;81;21050;-72
2021/08/28 06:48:13;;;;;;;6.87;5.10;;;;;;;18.56;75.80;100225.03;1721572;81;21163;-71
2021/08/28 06:51:00;;;;;;;7.10;4.87;;;;;;;18.63;75.36;100221.31;1721579;81;21043;-71
2021/08/28 06:53:45;;;;;;;7.20;5.50;;;;;;;18.71;74.37;100234.81;1725465;81;21124;-72
2021/08/28 06:56:31;;;;;;;7.07;5.17;;;;;;;18.69;74.24;100237.59;1725130;81;21031;-71
2021/08/28 06:58:59;;;;;;;5.80;4.63;;;;;;;18.67;73.77;100239.28;1713727;81;21095;-72
2021/08/28 07:01:31;;;;;;;6.33;4.93;;;;;;;18.70;73.48;100237.86;1724274;81;21975;-71
2021/08/28 07:04:17;;;;;;;7.30;5.20;;;;;;;18.71;73.04;100244.28;1721016;81;37749;-71
2021/08/28 07:07:02;;;;;;;8.63;5.53;;;;;;;18.69;73.26;100247.06;1722329;81;21007;-71
2021/08/28 07:09:29;;;;;;;6.63;5.70;;;;;;;18.73;73.38;100253.48;1718509;81;21038;-71
2021/08/28 07:11:56;;;;;;;6.43;5.10;;;;;;;18.78;73.33;100258.72;1717289;81;21569;-70
2021/08/28 07:14:24;;;;;;;6.43;5.30;;;;;;;18.87;73.37;100260.08;1692786;83;22025;-73
2021/08/28 07:16:52;;;;;;;7.47;5.50;;;;;;;18.98;73.27;100262.68;1720236;81;21034;-72
2021/08/28 07:19:21;;;;;;;8.90;6.00;;;;;;;19.11;73.00;100260.91;1716275;81;21634;-72
2021/08/28 07:21:49;;;;;;;8.30;6.20;;;;;;;19.16;72.29;100259.41;1719508;81;21101;-71
2021/08/28 07:24:16;;;;;;;6.50;5.47;;;;;;;19.19;72.32;100265.53;1732935;81;22596;-73
2021/08/28 07:26:45;;;;;;;6.93;5.67;;;;;;;19.24;72.36;100263.20;1736336;81;21148;-73
2021/08/28 07:29:31;;;;;;;8.20;5.70;;;;;;;19.32;72.10;100264.55;1732229;81;21101;-71
2021/08/28 07:31:58;;;;;;;7.90;5.33;;;;;;;19.44;72.59;100262.50;1730523;81;21037;-72
2021/08/28 07:34:25;;;;;;;7.43;6.00;;;;;;;19.57;71.53;100265.57;1732850;81;21150;-73
2021/08/28 07:36:52;;;;;;;8.90;6.10;;;;;;;19.66;70.85;100272.35;1731994;81;21238;-72
2021/08/28 07:39:20;;;;;;;7.33;5.97;;;;;;;19.71;70.42;100270.83;1732009;81;21151;-72
2021/08/28 07:41:47;;;;;;;6.60;5.90;;;;;;;19.70;70.09;100269.78;1730598;80;21573;-72
2021/08/28 07:44:15;;;;;;;7.20;5.87;;;;;;;19.66;70.20;100281.83;1733993;81;21189;-72
2021/08/28 07:46:42;;;;;;;8.73;5.70;;;;;;;19.61;70.47;100284.67;1735238;81;21172;-72
2021/08/28 07:49:20;;;;;;;7.43;6.07;;;;;;;19.64;70.83;100290.84;1731054;81;21085;-73
2021/08/28 07:51:47;;;;;;;10.43;5.30;;;;;;;19.69;70.75;100293.38;1731190;81;21140;-71
2021/08/28 07:54:14;;;;;;;6.00;4.67;;;;;;;19.67;69.38;100291.55;1732660;81;21097;-72
2021/08/28 07:56:41;;;;;;;6.73;4.83;;;;;;;19.63;69.24;100293.28;1731396;81;21085;-72
2021/08/28 07:59:10;;;;;;;5.67;4.17;;;;;;;19.64;68.69;100292.19;1734901;81;21729;-72
2021/08/28 08:01:37;;;;;;;5.83;4.50;;;;;;;19.75;67.99;100296.72;1694782;82;21122;-71
2021/08/28 08:04:04;;;;;;;5.53;4.40;;;;;;;19.82;67.85;100292.38;1733446;81;21517;-73
2021/08/28 08:06:39;;;;;;;5.90;4.50;;;;;;;19.90;67.26;100282.60;1697556;81;21113;-73
2021/08/28 08:09:24;;;;;;;5.73;4.70;;;;;;;19.91;65.24;100289.07;1717841;80;21070;-72
2021/08/28 08:12:11;;;;;;;6.63;4.27;;;;;;;19.86;65.39;100289.80;1719533;81;21569;-71
2021/08/28 08:14:51;;;;;;;4.30;3.40;;;;;;;19.85;65.67;100295.00;1677076;81;21074;-73
2021/08/28 08:17:26;;;;;;;5.10;3.47;;;;;;;19.90;65.84;100291.52;1727470;81;21555;-71
2021/08/28 08:19:55;;;;;;;6.80;4.40;;;;;;;19.91;65.57;100293.14;1725670;81;21097;-72
2021/08/28 08:22:41;;;;;;;4.50;3.57;;;;;;;19.94;65.35;100299.83;1737424;82;21089;-71
2021/08/28 08:25:16;;;;;;;5.30;3.97;;;;;;;19.94;64.73;100294.94;1716393;81;21055;-72
2021/08/28 08:27:50;;;;;;;5.93;4.10;;;;;;;19.95;64.93;100295.20;1681143;81;21090;-71
2021/08/28 08:30:22;;;;;;;6.00;3.70;;;;;;;20.00;64.34;100296.35;1720097;81;21112;-73
2021/08/28 08:32:50;;;;;;;4.57;3.40;;;;;;;20.09;64.09;100299.82;1717315;81;21078;-72
2021/08/28 08:35:18;;;;;;;5.90;3.43;;;;;;;20.18;64.23;100299.78;1713310;81;21124;-72
2021/08/28 08:37:45;;;;;;;5.17;3.30;;;;;;;20.33;63.53;100303.27;1703992;81;21098;-72
2021/08/28 08:40:14;;;;;;;4.87;3.33;;;;;;;20.50;62.50;100301.82;1719824;81;21145;-71
2021/08/28 08:42:47;;;;;;;5.22;3.30;;;;;;;20.69;62.40;100309.52;1716775;81;21020;-73
2021/08/28 08:45:14;;;;;;;5.23;3.47;;;;;;;20.82;62.64;100313.88;1720816;81;21070;-72
2021/08/28 08:47:41;;;;;;;4.83;3.30;;;;;;;20.95;60.99;100309.31;1717326;81;21598;-71
2021/08/28 08:50:09;;;;;;;4.67;3.37;;;;;;;20.96;59.44;100310.09;1722088;81;21118;-72
2021/08/28 08:52:37;;;;;;;5.20;2.87;;;;;;;21.01;60.55;100308.55;1726248;80;21075;-73
2021/08/28 08:55:10;;;;;;;3.30;2.43;;;;;;;21.16;59.41;100306.59;1735246;81;22021;-72
2021/08/28 08:57:36;;;;;;;4.53;3.03;;;;;;;21.29;58.95;100317.72;1721419;81;21058;-72
2021/08/28 09:00:07;;;;;;;3.87;2.37;;;;;;;21.38;58.50;100315.50;1729286;81;21648;-72
2021/08/28 09:02:37;;;;;;;4.27;2.93;;;;;;;21.51;57.50;100314.40;1729099;81;21113;-72
2021/08/28 09:05:06;;;;;;;3.70;2.50;;;;;;;21.66;57.25;100319.20;1729107;81;21082;-73
2021/08/28 09:07:33;;;;;;;3.97;2.73;;;;;;;21.73;57.57;100323.51;1737669;81;21491;-73
2021/08/28 09:10:00;;;;;;;3.57;2.67;;;;;;;21.72;57.38;100321.14;1730408;81;21510;-75
2021/08/28 09:12:36;;;;;;;3.80;2.70;;;;;;;21.65;56.65;100335.83;1719369;81;21069;-77
2021/08/28 09:15:03;;;;;;;5.10;2.37;;;;;;;21.50;57.20;100330.48;1675472;82;21269;-73
2021/08/28 09:17:30;;;;;;;3.50;2.60;;;;;;;21.45;57.23;100328.75;1675273;83;21051;-75
2021/08/28 09:19:57;;;;;;;3.97;2.80;;;;;;;21.41;57.48;100335.20;1727701;81;21855;-75
2021/08/28 09:22:33;;;;;;;4.80;2.20;;;;;;;21.39;56.57;100345.06;1728145;81;21058;-75
2021/08/28 09:25:05;;;;;;;3.53;2.10;;;;;;;21.35;56.13;100356.92;1732570;81;21066;-74
2021/08/28 09:27:42;;;;;;;2.87;2.00;;;;;;;21.28;56.66;100370.44;1732325;81;21054;-76
2021/08/28 09:30:31;;;;;;;3.23;2.10;;;;;;;21.25;56.38;100349.95;1736934;81;21094;-73
2021/08/28 09:33:01;;;;;;;4.07;2.00;;;;;;;21.24;57.19;100358.66;1733294;81;21531;-75
2021/08/28 09:35:34;;;;;;;3.73;2.10;;;;;;;21.28;57.08;100347.92;1726185;81;21069;-75
2021/08/28 09:38:03;;;;;;;3.13;2.10;;;;;;;21.42;57.42;100346.30;1736936;81;21104;-74
2021/08/28 09:40:37;;;;;;;3.40;2.10;;;;;;;21.57;56.34;100352.46;1731884;81;21082;-74
2021/08/28 09:43:14;;;;;;;3.27;1.97;;;;;;;21.55;55.82;100350.64;1737096;81;21112;-75
2021/08/28 09:45:42;;;;;;;6.90;2.83;;;;;;;21.47;55.50;100368.63;1736493;81;21130;-76
2021/08/28 09:48:11;;;;;;;3.43;1.83;;;;;;;21.40;55.99;100359.44;1741090;81;20980;-75
2021/08/28 09:50:49;;;;;;;3.10;1.80;;;;;;;21.41;55.46;100352.30;1678915;83;21596;-76
2021/08/28 09:53:23;;;;;;;3.13;1.90;;;;;;;21.47;56.07;100354.25;1678525;83;21067;-76
2021/08/28 09:56:06;;;;;;;2.63;1.77;;;;;;;21.61;54.72;100363.45;1724861;81;21066;-76
2021/08/28 09:58:32;;;;;;;2.70;1.77;;;;;;;21.64;54.26;100360.06;1718632;81;21731;-75
2021/08/28 10:01:05;;;;;;;4.80;2.00;;;;;;;21.71;54.66;100357.02;1728580;81;21043;-75
2021/08/28 10:03:34;;;;;;;3.87;2.10;;;;;;;21.87;54.22;100363.17;1736708;81;21076;-76
2021/08/28 10:06:01;;;;;;;3.60;1.87;;;;;;;21.93;54.41;100363.98;1730747;81;21027;-76
2021/08/28 10:08:31;;;;;;;2.50;1.57;;;;;;;21.97;53.32;100372.25;1709748;81;21085;-76
2021/08/28 10:11:02;;;;;;;3.43;1.67;;;;;;;21.87;53.81;100372.69;1706642;83;21155;-75
2021/08/28 10:13:28;;;;;;;3.53;1.63;;;;;;;21.78;53.87;100373.59;1742260;82;21026;-75
2021/08/28 10:15:55;;;;;;;2.00;1.40;;;;;;;21.87;54.39;100376.77;1740036;81;21015;-76
2021/08/28 10:18:22;;;;;;;3.57;1.83;;;;;;;21.98;53.42;100380.09;1741951;81;21022;-75
2021/08/28 10:20:52;;;;;;;3.53;2.03;;;;;;;21.93;52.62;100377.57;1734041;81;21070;-75
2021/08/28 10:23:19;;;;;;;3.27;2.00;;;;;;;21.83;54.11;100386.73;1731779;81;21536;-75
2021/08/28 10:25:50;;;;;;;2.83;1.90;;;;;;;21.81;52.82;100380.83;1739942;81;21038;-75
2021/08/28 10:28:18;;;;;;;2.77;1.80;;;;;;;21.83;52.94;100386.73;1721248;81;21018;-74
2021/08/28 10:30:46;;;;;;;3.20;1.70;;;;;;;21.87;53.61;100384.36;1737666;81;21054;-75
2021/08/28 10:33:13;;;;;;;2.23;1.63;;;;;;;21.91;53.52;100383.11;1742346;82;21493;-75
2021/08/28 10:35:41;;;;;;;3.77;1.77;;;;;;;22.01;53.11;100386.75;1740792;81;21172;-74
2021/08/28 10:38:07;;;;;;;2.40;1.57;;;;;;;22.03;52.62;100389.15;1736434;81;20971;-75
2021/08/28 10:40:34;;;;;;;3.20;1.50;;;;;;;21.97;51.60;100383.13;1742809;81;21909;-75
2021/08/28 10:43:05;;;;;;;2.83;1.40;;;;;;;21.91;51.97;100392.63;1735201;81;21150;-75
2021/08/28 10:45:35;;;;;;;2.35;1.50;;;;;;;21.86;52.06;100386.06;1746441;81;20975;-76
2021/08/28 10:48:06;;;;;;;2.58;1.60;;;;;;;21.88;52.47;100401.45;1701571;83;21136;-72
2021/08/28 10:50:36;;;;;;;2.70;1.60;;;;;;;21.92;51.99;100387.44;1726621;81;22275;-74
2021/08/28 10:53:03;;;;;;;2.30;1.33;;;;;;;21.89;51.89;100392.19;1725622;81;20953;-73
2021/08/28 10:55:48;;;;;;;2.30;1.43;;;;;;;21.89;52.34;100393.55;1721457;81;21117;-72
2021/08/28 10:58:17;;;;;;;2.87;1.60;;;;;;;21.89;52.18;100401.14;1725073;81;22001;-73
2021/08/28 11:00:51;;;;;;;2.93;1.57;;;;;;;21.92;53.20;100396.39;1724931;81;21094;-73
2021/08/28 11:03:31;;;;;;;2.63;1.80;;;;;;;21.93;51.78;100406.13;1721622;81;20961;-73
2021/08/28 11:06:19;;;;;;;2.42;1.40;;;;;;;21.91;52.21;100402.14;1732731;81;26687;-73
2021/08/28 11:08:51;;;;;;;1.90;1.50;;;;;;;21.90;53.31;100399.20;1726240;81;21060;-74
2021/08/28 11:11:27;;;;;;;3.23;1.70;;;;;;;22.06;51.82;100397.42;1725166;81;21093;-73
2021/08/28 11:14:02;;;;;;;2.80;1.90;;;;;;;22.16;51.43;100399.73;1721595;83;21487;-74
2021/08/28 11:16:46;;;;;;;3.67;1.50;;;;;;;22.20;51.38;100401.99;1723974;81;21074;-74
2021/08/28 11:19:32;;;;;;;3.10;1.90;;;;;;;22.22;50.94;100399.73;1712006;81;21105;-74
2021/08/28 11:21:59;;;;;;;2.67;1.50;;;;;;;22.23;51.17;100394.52;1726496;81;21024;-75
2021/08/28 11:24:27;;;;;;;3.47;1.90;;;;;;;22.25;51.47;100388.75;1715265;81;21592;-76
2021/08/28 11:27:01;;;;;;;2.97;1.60;;;;;;;22.26;51.58;100393.63;1732404;81;21134;-75
2021/08/28 11:29:45;;;;;;;3.27;1.70;;;;;;;22.26;51.20;100399.06;1686893;81;21065;-76
2021/08/28 11:32:20;;;;;;;2.73;1.50;;;;;;;22.30;51.27;100398.60;1714207;81;21137;-75
2021/08/28 11:34:53;;;;;;;2.60;1.80;;;;;;;22.38;51.82;100401.80;1704778;83;21635;-75
2021/08/28 11:37:35;;;;;;;2.10;1.40;;;;;;;22.42;51.30;100395.89;1723447;81;21062;-79